<?xml version="1.0" encoding="UTF-8" standalone="no" ?>
<gpx xmlns="http://www.topografix.com/GPX/1/1" xmlns:xsi="http://www.w3.org/2001/XMLSchema-instance" xsi:schemaLocation="http://www.topografix.com/GPX/1/1 http://www.topografix.com/GPX/1/1/gpx.xsd" version="1.1" creator="VisuGPX - https://www.visugpx.com">
  <metadata>
    <name>83-V-Vidauban-le Cannet des Maures</name>
    <desc><![CDATA[83-V-Vidauban-le Cannet des Maures : à la recherche de Forum VOCONII.
2026-02-06-CMHC]]></desc>
  </metadata>
  <trk>
    <name><![CDATA[2026-02-06-V-Vidauban]]></name>
    <extensions>
      <line xmlns="http://www.topografix.com/GPX/gpx_style/0/2">
        <width>4</width>
      </line>
    </extensions>
    <trkseg>
      <trkpt lat="43.40909" lon="6.38146">
        <ele>150.8</ele>
        <time>2026-02-06T13:02:22.000Z</time>
      </trkpt>
      <trkpt lat="43.40909" lon="6.38146">
        <ele>150.8</ele>
        <time>2026-02-06T13:02:23.000Z</time>
      </trkpt>
      <trkpt lat="43.40906" lon="6.38142">
        <ele>150.5</ele>
        <time>2026-02-06T13:03:00.000Z</time>
      </trkpt>
      <trkpt lat="43.40906" lon="6.38141">
        <ele>150.1</ele>
        <time>2026-02-06T13:03:19.000Z</time>
      </trkpt>
      <trkpt lat="43.40905" lon="6.38141">
        <ele>150.1</ele>
        <time>2026-02-06T13:03:30.000Z</time>
      </trkpt>
      <trkpt lat="43.40906" lon="6.38142">
        <ele>150.1</ele>
        <time>2026-02-06T13:03:35.000Z</time>
      </trkpt>
      <trkpt lat="43.40913" lon="6.3815">
        <ele>150.5</ele>
        <time>2026-02-06T13:04:03.000Z</time>
      </trkpt>
      <trkpt lat="43.40912" lon="6.3815">
        <ele>150.9</ele>
        <time>2026-02-06T13:04:18.000Z</time>
      </trkpt>
      <trkpt lat="43.40914" lon="6.38149">
        <ele>151.6</ele>
        <time>2026-02-06T13:05:08.000Z</time>
      </trkpt>
      <trkpt lat="43.40922" lon="6.38155">
        <ele>151.6</ele>
        <time>2026-02-06T13:05:29.000Z</time>
      </trkpt>
      <trkpt lat="43.4093" lon="6.38159">
        <ele>151.8</ele>
        <time>2026-02-06T13:05:42.000Z</time>
      </trkpt>
      <trkpt lat="43.40939" lon="6.38164">
        <ele>152</ele>
        <time>2026-02-06T13:05:53.000Z</time>
      </trkpt>
      <trkpt lat="43.40944" lon="6.38166">
        <ele>152.4</ele>
        <time>2026-02-06T13:06:11.000Z</time>
      </trkpt>
      <trkpt lat="43.40947" lon="6.38167">
        <ele>152.5</ele>
        <time>2026-02-06T13:06:21.000Z</time>
      </trkpt>
      <trkpt lat="43.40947" lon="6.38165">
        <ele>152.4</ele>
        <time>2026-02-06T13:06:53.000Z</time>
      </trkpt>
      <trkpt lat="43.4095" lon="6.38166">
        <ele>152.2</ele>
        <time>2026-02-06T13:07:12.000Z</time>
      </trkpt>
      <trkpt lat="43.40958" lon="6.38175">
        <ele>152.3</ele>
        <time>2026-02-06T13:07:31.000Z</time>
      </trkpt>
      <trkpt lat="43.40967" lon="6.38178">
        <ele>152.7</ele>
        <time>2026-02-06T13:07:45.000Z</time>
      </trkpt>
      <trkpt lat="43.40976" lon="6.38181">
        <ele>153</ele>
        <time>2026-02-06T13:07:54.000Z</time>
      </trkpt>
      <trkpt lat="43.40985" lon="6.38185">
        <ele>153.6</ele>
        <time>2026-02-06T13:08:03.000Z</time>
      </trkpt>
      <trkpt lat="43.40994" lon="6.38187">
        <ele>154.4</ele>
        <time>2026-02-06T13:08:13.000Z</time>
      </trkpt>
      <trkpt lat="43.41003" lon="6.38189">
        <ele>155.4</ele>
        <time>2026-02-06T13:08:25.000Z</time>
      </trkpt>
      <trkpt lat="43.41013" lon="6.38189">
        <ele>156.4</ele>
        <time>2026-02-06T13:08:37.000Z</time>
      </trkpt>
      <trkpt lat="43.41022" lon="6.38192">
        <ele>156.9</ele>
        <time>2026-02-06T13:08:46.000Z</time>
      </trkpt>
      <trkpt lat="43.41031" lon="6.38191">
        <ele>157.7</ele>
        <time>2026-02-06T13:08:55.000Z</time>
      </trkpt>
      <trkpt lat="43.4104" lon="6.38195">
        <ele>159.1</ele>
        <time>2026-02-06T13:09:07.000Z</time>
      </trkpt>
      <trkpt lat="43.41048" lon="6.382">
        <ele>160</ele>
        <time>2026-02-06T13:09:16.000Z</time>
      </trkpt>
      <trkpt lat="43.41058" lon="6.38202">
        <ele>161</ele>
        <time>2026-02-06T13:09:25.000Z</time>
      </trkpt>
      <trkpt lat="43.41067" lon="6.38205">
        <ele>161.6</ele>
        <time>2026-02-06T13:09:34.000Z</time>
      </trkpt>
      <trkpt lat="43.41077" lon="6.38208">
        <ele>162.7</ele>
        <time>2026-02-06T13:09:52.000Z</time>
      </trkpt>
      <trkpt lat="43.41086" lon="6.38211">
        <ele>163.3</ele>
        <time>2026-02-06T13:10:02.000Z</time>
      </trkpt>
      <trkpt lat="43.41095" lon="6.38215">
        <ele>164</ele>
        <time>2026-02-06T13:10:12.000Z</time>
      </trkpt>
      <trkpt lat="43.41104" lon="6.38222">
        <ele>165.3</ele>
        <time>2026-02-06T13:10:23.000Z</time>
      </trkpt>
      <trkpt lat="43.4111" lon="6.38232">
        <ele>166.5</ele>
        <time>2026-02-06T13:10:34.000Z</time>
      </trkpt>
      <trkpt lat="43.41111" lon="6.38245">
        <ele>167.8</ele>
        <time>2026-02-06T13:10:45.000Z</time>
      </trkpt>
      <trkpt lat="43.41108" lon="6.38257">
        <ele>168.8</ele>
        <time>2026-02-06T13:10:58.000Z</time>
      </trkpt>
      <trkpt lat="43.41105" lon="6.3827">
        <ele>169.2</ele>
        <time>2026-02-06T13:11:07.000Z</time>
      </trkpt>
      <trkpt lat="43.41103" lon="6.38283">
        <ele>169.5</ele>
        <time>2026-02-06T13:11:16.000Z</time>
      </trkpt>
      <trkpt lat="43.411" lon="6.38295">
        <ele>169.7</ele>
        <time>2026-02-06T13:11:25.000Z</time>
      </trkpt>
      <trkpt lat="43.41098" lon="6.38309">
        <ele>169.9</ele>
        <time>2026-02-06T13:11:34.000Z</time>
      </trkpt>
      <trkpt lat="43.41099" lon="6.38322">
        <ele>170.1</ele>
        <time>2026-02-06T13:11:42.000Z</time>
      </trkpt>
      <trkpt lat="43.41099" lon="6.38336">
        <ele>170.1</ele>
        <time>2026-02-06T13:11:52.000Z</time>
      </trkpt>
      <trkpt lat="43.411" lon="6.3835">
        <ele>170.2</ele>
        <time>2026-02-06T13:12:02.000Z</time>
      </trkpt>
      <trkpt lat="43.41099" lon="6.38363">
        <ele>170.3</ele>
        <time>2026-02-06T13:12:10.000Z</time>
      </trkpt>
      <trkpt lat="43.41097" lon="6.38376">
        <ele>170.7</ele>
        <time>2026-02-06T13:12:20.000Z</time>
      </trkpt>
      <trkpt lat="43.41097" lon="6.38389">
        <ele>171.3</ele>
        <time>2026-02-06T13:12:31.000Z</time>
      </trkpt>
      <trkpt lat="43.41097" lon="6.38402">
        <ele>171.8</ele>
        <time>2026-02-06T13:12:39.000Z</time>
      </trkpt>
      <trkpt lat="43.41092" lon="6.38414">
        <ele>172.2</ele>
        <time>2026-02-06T13:12:48.000Z</time>
      </trkpt>
      <trkpt lat="43.4109" lon="6.38427">
        <ele>172.6</ele>
        <time>2026-02-06T13:12:57.000Z</time>
      </trkpt>
      <trkpt lat="43.41089" lon="6.3844">
        <ele>173.3</ele>
        <time>2026-02-06T13:13:07.000Z</time>
      </trkpt>
      <trkpt lat="43.41087" lon="6.38454">
        <ele>173.8</ele>
        <time>2026-02-06T13:13:16.000Z</time>
      </trkpt>
      <trkpt lat="43.41086" lon="6.38467">
        <ele>174.2</ele>
        <time>2026-02-06T13:13:24.000Z</time>
      </trkpt>
      <trkpt lat="43.41086" lon="6.3848">
        <ele>174.6</ele>
        <time>2026-02-06T13:13:33.000Z</time>
      </trkpt>
      <trkpt lat="43.41091" lon="6.38491">
        <ele>175.1</ele>
        <time>2026-02-06T13:13:42.000Z</time>
      </trkpt>
      <trkpt lat="43.411" lon="6.38496">
        <ele>175.8</ele>
        <time>2026-02-06T13:13:51.000Z</time>
      </trkpt>
      <trkpt lat="43.41109" lon="6.38497">
        <ele>176.6</ele>
        <time>2026-02-06T13:13:59.000Z</time>
      </trkpt>
      <trkpt lat="43.41118" lon="6.38499">
        <ele>177.3</ele>
        <time>2026-02-06T13:14:09.000Z</time>
      </trkpt>
      <trkpt lat="43.41128" lon="6.38502">
        <ele>178.1</ele>
        <time>2026-02-06T13:14:19.000Z</time>
      </trkpt>
      <trkpt lat="43.41137" lon="6.38502">
        <ele>179.3</ele>
        <time>2026-02-06T13:14:29.000Z</time>
      </trkpt>
      <trkpt lat="43.41146" lon="6.38507">
        <ele>180.5</ele>
        <time>2026-02-06T13:14:39.000Z</time>
      </trkpt>
      <trkpt lat="43.41156" lon="6.38505">
        <ele>181.3</ele>
        <time>2026-02-06T13:14:47.000Z</time>
      </trkpt>
      <trkpt lat="43.41165" lon="6.38504">
        <ele>182.1</ele>
        <time>2026-02-06T13:14:56.000Z</time>
      </trkpt>
      <trkpt lat="43.41174" lon="6.38503">
        <ele>182.7</ele>
        <time>2026-02-06T13:15:04.000Z</time>
      </trkpt>
      <trkpt lat="43.41183" lon="6.38504">
        <ele>183.6</ele>
        <time>2026-02-06T13:15:13.000Z</time>
      </trkpt>
      <trkpt lat="43.41192" lon="6.38507">
        <ele>183.8</ele>
        <time>2026-02-06T13:15:23.000Z</time>
      </trkpt>
      <trkpt lat="43.41202" lon="6.38509">
        <ele>184.3</ele>
        <time>2026-02-06T13:15:32.000Z</time>
      </trkpt>
      <trkpt lat="43.41211" lon="6.38513">
        <ele>184.5</ele>
        <time>2026-02-06T13:15:42.000Z</time>
      </trkpt>
      <trkpt lat="43.4122" lon="6.38508">
        <ele>184.3</ele>
        <time>2026-02-06T13:16:14.000Z</time>
      </trkpt>
      <trkpt lat="43.41229" lon="6.38506">
        <ele>184.2</ele>
        <time>2026-02-06T13:16:30.000Z</time>
      </trkpt>
      <trkpt lat="43.41238" lon="6.3851">
        <ele>184.1</ele>
        <time>2026-02-06T13:16:44.000Z</time>
      </trkpt>
      <trkpt lat="43.4124" lon="6.38511">
        <ele>183.7</ele>
        <time>2026-02-06T13:16:58.000Z</time>
      </trkpt>
      <trkpt lat="43.4124" lon="6.3851">
        <ele>183.2</ele>
        <time>2026-02-06T13:17:07.000Z</time>
      </trkpt>
      <trkpt lat="43.41246" lon="6.38512">
        <ele>182</ele>
        <time>2026-02-06T13:17:52.000Z</time>
      </trkpt>
      <trkpt lat="43.41249" lon="6.38513">
        <ele>181.9</ele>
        <time>2026-02-06T13:18:16.000Z</time>
      </trkpt>
      <trkpt lat="43.4125" lon="6.38511">
        <ele>181.8</ele>
        <time>2026-02-06T13:18:26.000Z</time>
      </trkpt>
      <trkpt lat="43.4125" lon="6.38512">
        <ele>181.6</ele>
        <time>2026-02-06T13:19:10.000Z</time>
      </trkpt>
      <trkpt lat="43.4125" lon="6.38511">
        <ele>181.6</ele>
        <time>2026-02-06T13:19:21.000Z</time>
      </trkpt>
      <trkpt lat="43.41252" lon="6.38512">
        <ele>181.6</ele>
        <time>2026-02-06T13:19:38.000Z</time>
      </trkpt>
      <trkpt lat="43.4126" lon="6.38506">
        <ele>180.8</ele>
        <time>2026-02-06T13:20:07.000Z</time>
      </trkpt>
      <trkpt lat="43.41267" lon="6.38499">
        <ele>180.6</ele>
        <time>2026-02-06T13:20:17.000Z</time>
      </trkpt>
      <trkpt lat="43.41274" lon="6.38489">
        <ele>180.2</ele>
        <time>2026-02-06T13:20:29.000Z</time>
      </trkpt>
      <trkpt lat="43.41282" lon="6.38481">
        <ele>180.1</ele>
        <time>2026-02-06T13:20:42.000Z</time>
      </trkpt>
      <trkpt lat="43.4129" lon="6.38475">
        <ele>179.8</ele>
        <time>2026-02-06T13:20:53.000Z</time>
      </trkpt>
      <trkpt lat="43.413" lon="6.38474">
        <ele>178.7</ele>
        <time>2026-02-06T13:21:07.000Z</time>
      </trkpt>
      <trkpt lat="43.41308" lon="6.38479">
        <ele>176.7</ele>
        <time>2026-02-06T13:21:22.000Z</time>
      </trkpt>
      <trkpt lat="43.41317" lon="6.38481">
        <ele>174</ele>
        <time>2026-02-06T13:21:42.000Z</time>
      </trkpt>
      <trkpt lat="43.41326" lon="6.38486">
        <ele>172.1</ele>
        <time>2026-02-06T13:21:57.000Z</time>
      </trkpt>
      <trkpt lat="43.41335" lon="6.38485">
        <ele>170.8</ele>
        <time>2026-02-06T13:22:09.000Z</time>
      </trkpt>
      <trkpt lat="43.41345" lon="6.38482">
        <ele>169.7</ele>
        <time>2026-02-06T13:22:21.000Z</time>
      </trkpt>
      <trkpt lat="43.41352" lon="6.38475">
        <ele>168.1</ele>
        <time>2026-02-06T13:22:34.000Z</time>
      </trkpt>
      <trkpt lat="43.4136" lon="6.38467">
        <ele>167.1</ele>
        <time>2026-02-06T13:22:48.000Z</time>
      </trkpt>
      <trkpt lat="43.41368" lon="6.38462">
        <ele>166.5</ele>
        <time>2026-02-06T13:22:57.000Z</time>
      </trkpt>
      <trkpt lat="43.41376" lon="6.38456">
        <ele>165.9</ele>
        <time>2026-02-06T13:23:06.000Z</time>
      </trkpt>
      <trkpt lat="43.41384" lon="6.38449">
        <ele>165.3</ele>
        <time>2026-02-06T13:23:14.000Z</time>
      </trkpt>
      <trkpt lat="43.41392" lon="6.38442">
        <ele>164.9</ele>
        <time>2026-02-06T13:23:24.000Z</time>
      </trkpt>
      <trkpt lat="43.414" lon="6.38435">
        <ele>164.4</ele>
        <time>2026-02-06T13:23:34.000Z</time>
      </trkpt>
      <trkpt lat="43.41408" lon="6.38427">
        <ele>164.2</ele>
        <time>2026-02-06T13:23:44.000Z</time>
      </trkpt>
      <trkpt lat="43.41415" lon="6.38419">
        <ele>163.6</ele>
        <time>2026-02-06T13:23:56.000Z</time>
      </trkpt>
      <trkpt lat="43.41422" lon="6.38411">
        <ele>163</ele>
        <time>2026-02-06T13:24:07.000Z</time>
      </trkpt>
      <trkpt lat="43.4143" lon="6.38405">
        <ele>162.4</ele>
        <time>2026-02-06T13:24:15.000Z</time>
      </trkpt>
      <trkpt lat="43.41437" lon="6.38397">
        <ele>161.8</ele>
        <time>2026-02-06T13:24:24.000Z</time>
      </trkpt>
      <trkpt lat="43.41445" lon="6.38389">
        <ele>161.4</ele>
        <time>2026-02-06T13:24:33.000Z</time>
      </trkpt>
      <trkpt lat="43.41453" lon="6.38392">
        <ele>160.8</ele>
        <time>2026-02-06T13:24:45.000Z</time>
      </trkpt>
      <trkpt lat="43.41463" lon="6.38391">
        <ele>160.3</ele>
        <time>2026-02-06T13:24:57.000Z</time>
      </trkpt>
      <trkpt lat="43.41472" lon="6.38395">
        <ele>160.1</ele>
        <time>2026-02-06T13:25:11.000Z</time>
      </trkpt>
      <trkpt lat="43.41481" lon="6.38398">
        <ele>160.1</ele>
        <time>2026-02-06T13:25:20.000Z</time>
      </trkpt>
      <trkpt lat="43.4149" lon="6.38399">
        <ele>160.2</ele>
        <time>2026-02-06T13:25:32.000Z</time>
      </trkpt>
      <trkpt lat="43.41499" lon="6.38402">
        <ele>160.4</ele>
        <time>2026-02-06T13:25:40.000Z</time>
      </trkpt>
      <trkpt lat="43.41508" lon="6.38407">
        <ele>160.7</ele>
        <time>2026-02-06T13:25:49.000Z</time>
      </trkpt>
      <trkpt lat="43.41517" lon="6.3841">
        <ele>160.9</ele>
        <time>2026-02-06T13:26:00.000Z</time>
      </trkpt>
      <trkpt lat="43.41526" lon="6.38408">
        <ele>161.1</ele>
        <time>2026-02-06T13:26:09.000Z</time>
      </trkpt>
      <trkpt lat="43.41534" lon="6.38402">
        <ele>161.4</ele>
        <time>2026-02-06T13:26:15.000Z</time>
      </trkpt>
      <trkpt lat="43.41543" lon="6.38398">
        <ele>161.8</ele>
        <time>2026-02-06T13:26:22.000Z</time>
      </trkpt>
      <trkpt lat="43.41553" lon="6.38395">
        <ele>162.8</ele>
        <time>2026-02-06T13:26:33.000Z</time>
      </trkpt>
      <trkpt lat="43.41563" lon="6.38392">
        <ele>163</ele>
        <time>2026-02-06T13:26:40.000Z</time>
      </trkpt>
      <trkpt lat="43.41572" lon="6.38392">
        <ele>163.1</ele>
        <time>2026-02-06T13:26:50.000Z</time>
      </trkpt>
      <trkpt lat="43.41581" lon="6.38393">
        <ele>163.3</ele>
        <time>2026-02-06T13:27:05.000Z</time>
      </trkpt>
      <trkpt lat="43.41591" lon="6.38397">
        <ele>163.4</ele>
        <time>2026-02-06T13:27:18.000Z</time>
      </trkpt>
      <trkpt lat="43.416" lon="6.38396">
        <ele>163.4</ele>
        <time>2026-02-06T13:27:29.000Z</time>
      </trkpt>
      <trkpt lat="43.4161" lon="6.38397">
        <ele>163.4</ele>
        <time>2026-02-06T13:27:38.000Z</time>
      </trkpt>
      <trkpt lat="43.41619" lon="6.38395">
        <ele>163.4</ele>
        <time>2026-02-06T13:27:46.000Z</time>
      </trkpt>
      <trkpt lat="43.41628" lon="6.38391">
        <ele>163.5</ele>
        <time>2026-02-06T13:27:54.000Z</time>
      </trkpt>
      <trkpt lat="43.41638" lon="6.38388">
        <ele>163.6</ele>
        <time>2026-02-06T13:28:05.000Z</time>
      </trkpt>
      <trkpt lat="43.41648" lon="6.38387">
        <ele>163.6</ele>
        <time>2026-02-06T13:28:15.000Z</time>
      </trkpt>
      <trkpt lat="43.41657" lon="6.38384">
        <ele>163.6</ele>
        <time>2026-02-06T13:28:21.000Z</time>
      </trkpt>
      <trkpt lat="43.41666" lon="6.38379">
        <ele>163.6</ele>
        <time>2026-02-06T13:28:30.000Z</time>
      </trkpt>
      <trkpt lat="43.41675" lon="6.38376">
        <ele>163.6</ele>
        <time>2026-02-06T13:28:40.000Z</time>
      </trkpt>
      <trkpt lat="43.41684" lon="6.38379">
        <ele>163.4</ele>
        <time>2026-02-06T13:29:03.000Z</time>
      </trkpt>
      <trkpt lat="43.41692" lon="6.38371">
        <ele>163.4</ele>
        <time>2026-02-06T13:29:11.000Z</time>
      </trkpt>
      <trkpt lat="43.41701" lon="6.38365">
        <ele>163.4</ele>
        <time>2026-02-06T13:29:23.000Z</time>
      </trkpt>
      <trkpt lat="43.4171" lon="6.38364">
        <ele>163.3</ele>
        <time>2026-02-06T13:29:34.000Z</time>
      </trkpt>
      <trkpt lat="43.41719" lon="6.38359">
        <ele>163.2</ele>
        <time>2026-02-06T13:29:42.000Z</time>
      </trkpt>
      <trkpt lat="43.41727" lon="6.38354">
        <ele>162.9</ele>
        <time>2026-02-06T13:29:50.000Z</time>
      </trkpt>
      <trkpt lat="43.41737" lon="6.38351">
        <ele>162.2</ele>
        <time>2026-02-06T13:29:59.000Z</time>
      </trkpt>
      <trkpt lat="43.41746" lon="6.3835">
        <ele>161.7</ele>
        <time>2026-02-06T13:30:09.000Z</time>
      </trkpt>
      <trkpt lat="43.41756" lon="6.38346">
        <ele>161.4</ele>
        <time>2026-02-06T13:30:20.000Z</time>
      </trkpt>
      <trkpt lat="43.41764" lon="6.38342">
        <ele>161.1</ele>
        <time>2026-02-06T13:30:29.000Z</time>
      </trkpt>
      <trkpt lat="43.41774" lon="6.3834">
        <ele>160.4</ele>
        <time>2026-02-06T13:30:40.000Z</time>
      </trkpt>
      <trkpt lat="43.41781" lon="6.38333">
        <ele>158.5</ele>
        <time>2026-02-06T13:31:03.000Z</time>
      </trkpt>
      <trkpt lat="43.4179" lon="6.38333">
        <ele>157.1</ele>
        <time>2026-02-06T13:31:21.000Z</time>
      </trkpt>
      <trkpt lat="43.41793" lon="6.38332">
        <ele>155.9</ele>
        <time>2026-02-06T13:31:57.000Z</time>
      </trkpt>
      <trkpt lat="43.41794" lon="6.38331">
        <ele>155.7</ele>
        <time>2026-02-06T13:32:29.000Z</time>
      </trkpt>
      <trkpt lat="43.418" lon="6.38332">
        <ele>154</ele>
        <time>2026-02-06T13:32:58.000Z</time>
      </trkpt>
      <trkpt lat="43.41803" lon="6.3834">
        <ele>153.9</ele>
        <time>2026-02-06T13:33:13.000Z</time>
      </trkpt>
      <trkpt lat="43.41811" lon="6.38333">
        <ele>152.9</ele>
        <time>2026-02-06T13:33:27.000Z</time>
      </trkpt>
      <trkpt lat="43.4182" lon="6.38328">
        <ele>149.6</ele>
        <time>2026-02-06T13:34:10.000Z</time>
      </trkpt>
      <trkpt lat="43.41829" lon="6.38324">
        <ele>148.6</ele>
        <time>2026-02-06T13:34:20.000Z</time>
      </trkpt>
      <trkpt lat="43.41837" lon="6.38319">
        <ele>146.5</ele>
        <time>2026-02-06T13:34:32.000Z</time>
      </trkpt>
      <trkpt lat="43.41844" lon="6.3831">
        <ele>143.3</ele>
        <time>2026-02-06T13:35:06.000Z</time>
      </trkpt>
      <trkpt lat="43.4185" lon="6.38301">
        <ele>142</ele>
        <time>2026-02-06T13:35:18.000Z</time>
      </trkpt>
      <trkpt lat="43.41857" lon="6.38292">
        <ele>139.2</ele>
        <time>2026-02-06T13:35:29.000Z</time>
      </trkpt>
      <trkpt lat="43.41862" lon="6.38282">
        <ele>135.1</ele>
        <time>2026-02-06T13:35:59.000Z</time>
      </trkpt>
      <trkpt lat="43.4187" lon="6.38274">
        <ele>133.7</ele>
        <time>2026-02-06T13:36:18.000Z</time>
      </trkpt>
      <trkpt lat="43.41876" lon="6.3827">
        <ele>130.5</ele>
        <time>2026-02-06T13:36:58.000Z</time>
      </trkpt>
      <trkpt lat="43.41877" lon="6.38271">
        <ele>130.4</ele>
        <time>2026-02-06T13:37:01.000Z</time>
      </trkpt>
      <trkpt lat="43.41886" lon="6.38267">
        <ele>128.9</ele>
        <time>2026-02-06T13:37:18.000Z</time>
      </trkpt>
      <trkpt lat="43.41895" lon="6.38266">
        <ele>126.4</ele>
        <time>2026-02-06T13:37:37.000Z</time>
      </trkpt>
      <trkpt lat="43.41905" lon="6.38264">
        <ele>124.1</ele>
        <time>2026-02-06T13:38:03.000Z</time>
      </trkpt>
      <trkpt lat="43.41909" lon="6.38252">
        <ele>122.4</ele>
        <time>2026-02-06T13:38:21.000Z</time>
      </trkpt>
      <trkpt lat="43.41915" lon="6.38242">
        <ele>119.7</ele>
        <time>2026-02-06T13:38:43.000Z</time>
      </trkpt>
      <trkpt lat="43.41921" lon="6.38232">
        <ele>117.1</ele>
        <time>2026-02-06T13:39:08.000Z</time>
      </trkpt>
      <trkpt lat="43.41928" lon="6.38223">
        <ele>114</ele>
        <time>2026-02-06T13:39:38.000Z</time>
      </trkpt>
      <trkpt lat="43.41934" lon="6.38214">
        <ele>112.1</ele>
        <time>2026-02-06T13:39:55.000Z</time>
      </trkpt>
      <trkpt lat="43.41941" lon="6.38205">
        <ele>109.9</ele>
        <time>2026-02-06T13:40:28.000Z</time>
      </trkpt>
      <trkpt lat="43.41948" lon="6.38197">
        <ele>108.2</ele>
        <time>2026-02-06T13:40:50.000Z</time>
      </trkpt>
      <trkpt lat="43.41954" lon="6.38187">
        <ele>105.8</ele>
        <time>2026-02-06T13:41:10.000Z</time>
      </trkpt>
      <trkpt lat="43.41957" lon="6.38175">
        <ele>103.6</ele>
        <time>2026-02-06T13:41:31.000Z</time>
      </trkpt>
      <trkpt lat="43.41954" lon="6.38172">
        <ele>102.7</ele>
        <time>2026-02-06T13:41:50.000Z</time>
      </trkpt>
      <trkpt lat="43.41955" lon="6.38171">
        <ele>102.5</ele>
        <time>2026-02-06T13:42:04.000Z</time>
      </trkpt>
      <trkpt lat="43.41949" lon="6.38164">
        <ele>100.5</ele>
        <time>2026-02-06T13:42:41.000Z</time>
      </trkpt>
      <trkpt lat="43.41949" lon="6.38163">
        <ele>100.6</ele>
        <time>2026-02-06T13:42:53.000Z</time>
      </trkpt>
      <trkpt lat="43.41943" lon="6.38154">
        <ele>100.3</ele>
        <time>2026-02-06T13:43:16.000Z</time>
      </trkpt>
      <trkpt lat="43.41936" lon="6.38146">
        <ele>100</ele>
        <time>2026-02-06T13:43:29.000Z</time>
      </trkpt>
      <trkpt lat="43.41926" lon="6.38145">
        <ele>97.7</ele>
        <time>2026-02-06T13:44:05.000Z</time>
      </trkpt>
      <trkpt lat="43.41918" lon="6.38139">
        <ele>96.9</ele>
        <time>2026-02-06T13:44:15.000Z</time>
      </trkpt>
      <trkpt lat="43.41909" lon="6.38136">
        <ele>94.4</ele>
        <time>2026-02-06T13:44:26.000Z</time>
      </trkpt>
      <trkpt lat="43.41901" lon="6.38131">
        <ele>92.9</ele>
        <time>2026-02-06T13:44:41.000Z</time>
      </trkpt>
      <trkpt lat="43.41892" lon="6.38129">
        <ele>90.3</ele>
        <time>2026-02-06T13:45:05.000Z</time>
      </trkpt>
      <trkpt lat="43.41886" lon="6.38119">
        <ele>84.7</ele>
        <time>2026-02-06T13:45:42.000Z</time>
      </trkpt>
      <trkpt lat="43.41893" lon="6.38109">
        <ele>82.1</ele>
        <time>2026-02-06T13:46:00.000Z</time>
      </trkpt>
      <trkpt lat="43.41901" lon="6.38103">
        <ele>81.1</ele>
        <time>2026-02-06T13:46:17.000Z</time>
      </trkpt>
      <trkpt lat="43.41909" lon="6.38099">
        <ele>80.2</ele>
        <time>2026-02-06T13:46:33.000Z</time>
      </trkpt>
      <trkpt lat="43.41918" lon="6.38095">
        <ele>78.5</ele>
        <time>2026-02-06T13:46:51.000Z</time>
      </trkpt>
      <trkpt lat="43.41925" lon="6.38086">
        <ele>78</ele>
        <time>2026-02-06T13:46:58.000Z</time>
      </trkpt>
      <trkpt lat="43.4192" lon="6.38075">
        <ele>76.2</ele>
        <time>2026-02-06T13:47:23.000Z</time>
      </trkpt>
      <trkpt lat="43.41912" lon="6.38069">
        <ele>75.5</ele>
        <time>2026-02-06T13:47:45.000Z</time>
      </trkpt>
      <trkpt lat="43.41904" lon="6.38063">
        <ele>73.4</ele>
        <time>2026-02-06T13:48:21.000Z</time>
      </trkpt>
      <trkpt lat="43.41903" lon="6.38061">
        <ele>72.3</ele>
        <time>2026-02-06T13:48:41.000Z</time>
      </trkpt>
      <trkpt lat="43.41903" lon="6.38061">
        <ele>72.3</ele>
        <time>2026-02-06T13:48:53.000Z</time>
      </trkpt>
      <trkpt lat="43.41903" lon="6.38061">
        <ele>72.3</ele>
        <time>2026-02-06T13:49:03.000Z</time>
      </trkpt>
      <trkpt lat="43.41903" lon="6.38061">
        <ele>72.2</ele>
        <time>2026-02-06T13:49:23.000Z</time>
      </trkpt>
      <trkpt lat="43.41903" lon="6.38061">
        <ele>72.2</ele>
        <time>2026-02-06T13:49:30.000Z</time>
      </trkpt>
      <trkpt lat="43.41901" lon="6.3806">
        <ele>72.1</ele>
        <time>2026-02-06T13:49:58.000Z</time>
      </trkpt>
      <trkpt lat="43.41901" lon="6.3806">
        <ele>72.3</ele>
        <time>2026-02-06T13:50:16.000Z</time>
      </trkpt>
      <trkpt lat="43.41902" lon="6.38062">
        <ele>72.4</ele>
        <time>2026-02-06T13:50:28.000Z</time>
      </trkpt>
      <trkpt lat="43.41901" lon="6.38061">
        <ele>72.5</ele>
        <time>2026-02-06T13:50:45.000Z</time>
      </trkpt>
      <trkpt lat="43.41903" lon="6.38061">
        <ele>72.5</ele>
        <time>2026-02-06T13:51:16.000Z</time>
      </trkpt>
      <trkpt lat="43.41912" lon="6.38061">
        <ele>72.2</ele>
        <time>2026-02-06T13:51:31.000Z</time>
      </trkpt>
      <trkpt lat="43.41921" lon="6.38065">
        <ele>72</ele>
        <time>2026-02-06T13:51:42.000Z</time>
      </trkpt>
      <trkpt lat="43.41931" lon="6.38064">
        <ele>71.6</ele>
        <time>2026-02-06T13:51:56.000Z</time>
      </trkpt>
      <trkpt lat="43.41941" lon="6.38063">
        <ele>71.2</ele>
        <time>2026-02-06T13:52:04.000Z</time>
      </trkpt>
      <trkpt lat="43.4195" lon="6.38064">
        <ele>70.8</ele>
        <time>2026-02-06T13:52:11.000Z</time>
      </trkpt>
      <trkpt lat="43.4196" lon="6.38067">
        <ele>70.2</ele>
        <time>2026-02-06T13:52:21.000Z</time>
      </trkpt>
      <trkpt lat="43.41969" lon="6.38071">
        <ele>69.1</ele>
        <time>2026-02-06T13:52:36.000Z</time>
      </trkpt>
      <trkpt lat="43.41978" lon="6.3807">
        <ele>68.7</ele>
        <time>2026-02-06T13:52:46.000Z</time>
      </trkpt>
      <trkpt lat="43.41987" lon="6.38073">
        <ele>68.1</ele>
        <time>2026-02-06T13:53:00.000Z</time>
      </trkpt>
      <trkpt lat="43.41996" lon="6.38077">
        <ele>67.7</ele>
        <time>2026-02-06T13:53:13.000Z</time>
      </trkpt>
      <trkpt lat="43.42006" lon="6.38081">
        <ele>67.3</ele>
        <time>2026-02-06T13:53:25.000Z</time>
      </trkpt>
      <trkpt lat="43.42016" lon="6.3808">
        <ele>67.1</ele>
        <time>2026-02-06T13:53:59.000Z</time>
      </trkpt>
      <trkpt lat="43.42015" lon="6.38087">
        <ele>67</ele>
        <time>2026-02-06T13:54:30.000Z</time>
      </trkpt>
      <trkpt lat="43.42013" lon="6.38087">
        <ele>67</ele>
        <time>2026-02-06T13:54:45.000Z</time>
      </trkpt>
      <trkpt lat="43.42022" lon="6.38092">
        <ele>67</ele>
        <time>2026-02-06T13:54:55.000Z</time>
      </trkpt>
      <trkpt lat="43.42028" lon="6.38102">
        <ele>67</ele>
        <time>2026-02-06T13:55:06.000Z</time>
      </trkpt>
      <trkpt lat="43.42028" lon="6.38102">
        <ele>67</ele>
        <time>2026-02-06T13:55:18.000Z</time>
      </trkpt>
      <trkpt lat="43.42031" lon="6.38104">
        <ele>66.8</ele>
        <time>2026-02-06T13:56:09.000Z</time>
      </trkpt>
      <trkpt lat="43.42035" lon="6.38104">
        <ele>67.1</ele>
        <time>2026-02-06T13:56:43.000Z</time>
      </trkpt>
      <trkpt lat="43.42035" lon="6.38104">
        <ele>67</ele>
        <time>2026-02-06T13:57:06.000Z</time>
      </trkpt>
      <trkpt lat="43.42035" lon="6.38102">
        <ele>67</ele>
        <time>2026-02-06T13:57:15.000Z</time>
      </trkpt>
      <trkpt lat="43.42037" lon="6.38102">
        <ele>67.1</ele>
        <time>2026-02-06T13:57:31.000Z</time>
      </trkpt>
      <trkpt lat="43.42038" lon="6.38102">
        <ele>67.1</ele>
        <time>2026-02-06T13:57:42.000Z</time>
      </trkpt>
      <trkpt lat="43.42037" lon="6.38102">
        <ele>67.1</ele>
        <time>2026-02-06T14:00:06.000Z</time>
      </trkpt>
      <trkpt lat="43.42034" lon="6.38095">
        <ele>67</ele>
        <time>2026-02-06T14:00:29.000Z</time>
      </trkpt>
      <trkpt lat="43.42028" lon="6.38091">
        <ele>67</ele>
        <time>2026-02-06T14:00:41.000Z</time>
      </trkpt>
      <trkpt lat="43.42033" lon="6.381">
        <ele>66</ele>
        <time>2026-02-06T14:01:54.000Z</time>
      </trkpt>
      <trkpt lat="43.42039" lon="6.38091">
        <ele>66</ele>
        <time>2026-02-06T14:02:09.000Z</time>
      </trkpt>
      <trkpt lat="43.42047" lon="6.38098">
        <ele>66.3</ele>
        <time>2026-02-06T14:03:01.000Z</time>
      </trkpt>
      <trkpt lat="43.4205" lon="6.3811">
        <ele>67.2</ele>
        <time>2026-02-06T14:03:14.000Z</time>
      </trkpt>
      <trkpt lat="43.42055" lon="6.38114">
        <ele>68.9</ele>
        <time>2026-02-06T14:03:34.000Z</time>
      </trkpt>
      <trkpt lat="43.42057" lon="6.38117">
        <ele>69.1</ele>
        <time>2026-02-06T14:03:41.000Z</time>
      </trkpt>
      <trkpt lat="43.42061" lon="6.38128">
        <ele>69.9</ele>
        <time>2026-02-06T14:04:09.000Z</time>
      </trkpt>
      <trkpt lat="43.42064" lon="6.38117">
        <ele>70.3</ele>
        <time>2026-02-06T14:04:35.000Z</time>
      </trkpt>
      <trkpt lat="43.42065" lon="6.38104">
        <ele>70.7</ele>
        <time>2026-02-06T14:04:44.000Z</time>
      </trkpt>
      <trkpt lat="43.42065" lon="6.3809">
        <ele>71.3</ele>
        <time>2026-02-06T14:05:03.000Z</time>
      </trkpt>
      <trkpt lat="43.42064" lon="6.38077">
        <ele>71.6</ele>
        <time>2026-02-06T14:05:14.000Z</time>
      </trkpt>
      <trkpt lat="43.42058" lon="6.38066">
        <ele>72</ele>
        <time>2026-02-06T14:05:25.000Z</time>
      </trkpt>
      <trkpt lat="43.42049" lon="6.3806">
        <ele>72.3</ele>
        <time>2026-02-06T14:05:34.000Z</time>
      </trkpt>
      <trkpt lat="43.42041" lon="6.38056">
        <ele>72.2</ele>
        <time>2026-02-06T14:05:44.000Z</time>
      </trkpt>
      <trkpt lat="43.42032" lon="6.3805">
        <ele>72.1</ele>
        <time>2026-02-06T14:05:54.000Z</time>
      </trkpt>
      <trkpt lat="43.42023" lon="6.38044">
        <ele>72</ele>
        <time>2026-02-06T14:06:04.000Z</time>
      </trkpt>
      <trkpt lat="43.42015" lon="6.38039">
        <ele>72</ele>
        <time>2026-02-06T14:06:13.000Z</time>
      </trkpt>
      <trkpt lat="43.42006" lon="6.38036">
        <ele>71.9</ele>
        <time>2026-02-06T14:06:23.000Z</time>
      </trkpt>
      <trkpt lat="43.42006" lon="6.38035">
        <ele>71.9</ele>
        <time>2026-02-06T14:06:37.000Z</time>
      </trkpt>
      <trkpt lat="43.42001" lon="6.38032">
        <ele>71.8</ele>
        <time>2026-02-06T14:06:54.000Z</time>
      </trkpt>
      <trkpt lat="43.41991" lon="6.38028">
        <ele>71.8</ele>
        <time>2026-02-06T14:07:04.000Z</time>
      </trkpt>
      <trkpt lat="43.41982" lon="6.38023">
        <ele>71.8</ele>
        <time>2026-02-06T14:07:13.000Z</time>
      </trkpt>
      <trkpt lat="43.41973" lon="6.38023">
        <ele>71.8</ele>
        <time>2026-02-06T14:07:20.000Z</time>
      </trkpt>
      <trkpt lat="43.41966" lon="6.38015">
        <ele>71.8</ele>
        <time>2026-02-06T14:07:28.000Z</time>
      </trkpt>
      <trkpt lat="43.41957" lon="6.3802">
        <ele>71.8</ele>
        <time>2026-02-06T14:07:36.000Z</time>
      </trkpt>
      <trkpt lat="43.41948" lon="6.38017">
        <ele>71.8</ele>
        <time>2026-02-06T14:07:45.000Z</time>
      </trkpt>
      <trkpt lat="43.41939" lon="6.38014">
        <ele>71.8</ele>
        <time>2026-02-06T14:07:53.000Z</time>
      </trkpt>
      <trkpt lat="43.41929" lon="6.38014">
        <ele>71.8</ele>
        <time>2026-02-06T14:08:01.000Z</time>
      </trkpt>
      <trkpt lat="43.41919" lon="6.38016">
        <ele>71.8</ele>
        <time>2026-02-06T14:08:09.000Z</time>
      </trkpt>
      <trkpt lat="43.41909" lon="6.38019">
        <ele>71.7</ele>
        <time>2026-02-06T14:08:18.000Z</time>
      </trkpt>
      <trkpt lat="43.41899" lon="6.38022">
        <ele>71.6</ele>
        <time>2026-02-06T14:08:24.000Z</time>
      </trkpt>
      <trkpt lat="43.4189" lon="6.38024">
        <ele>71.5</ele>
        <time>2026-02-06T14:08:33.000Z</time>
      </trkpt>
      <trkpt lat="43.41881" lon="6.38027">
        <ele>71.5</ele>
        <time>2026-02-06T14:08:42.000Z</time>
      </trkpt>
      <trkpt lat="43.41872" lon="6.38031">
        <ele>71.6</ele>
        <time>2026-02-06T14:08:48.000Z</time>
      </trkpt>
      <trkpt lat="43.41862" lon="6.38026">
        <ele>71.6</ele>
        <time>2026-02-06T14:08:57.000Z</time>
      </trkpt>
      <trkpt lat="43.41854" lon="6.38021">
        <ele>71.6</ele>
        <time>2026-02-06T14:09:05.000Z</time>
      </trkpt>
      <trkpt lat="43.41845" lon="6.38014">
        <ele>71.5</ele>
        <time>2026-02-06T14:09:17.000Z</time>
      </trkpt>
      <trkpt lat="43.4184" lon="6.38003">
        <ele>71</ele>
        <time>2026-02-06T14:09:26.000Z</time>
      </trkpt>
      <trkpt lat="43.41841" lon="6.37993">
        <ele>69.7</ele>
        <time>2026-02-06T14:10:04.000Z</time>
      </trkpt>
      <trkpt lat="43.41838" lon="6.37993">
        <ele>69.7</ele>
        <time>2026-02-06T14:11:37.000Z</time>
      </trkpt>
      <trkpt lat="43.41838" lon="6.37986">
        <ele>69.6</ele>
        <time>2026-02-06T14:12:15.000Z</time>
      </trkpt>
      <trkpt lat="43.41838" lon="6.37986">
        <ele>69.6</ele>
        <time>2026-02-06T14:12:16.000Z</time>
      </trkpt>
      <trkpt lat="43.41837" lon="6.37986">
        <ele>69.7</ele>
        <time>2026-02-06T14:12:18.000Z</time>
      </trkpt>
      <trkpt lat="43.41837" lon="6.37986">
        <ele>69.7</ele>
        <time>2026-02-06T14:12:20.000Z</time>
      </trkpt>
      <trkpt lat="43.41836" lon="6.37974">
        <ele>70.3</ele>
        <time>2026-02-06T14:12:48.000Z</time>
      </trkpt>
      <trkpt lat="43.41836" lon="6.37961">
        <ele>71.2</ele>
        <time>2026-02-06T14:13:06.000Z</time>
      </trkpt>
      <trkpt lat="43.41833" lon="6.3795">
        <ele>72.7</ele>
        <time>2026-02-06T14:13:24.000Z</time>
      </trkpt>
      <trkpt lat="43.41832" lon="6.37937">
        <ele>74.4</ele>
        <time>2026-02-06T14:13:37.000Z</time>
      </trkpt>
      <trkpt lat="43.41833" lon="6.37924">
        <ele>76.6</ele>
        <time>2026-02-06T14:13:53.000Z</time>
      </trkpt>
      <trkpt lat="43.4183" lon="6.37912">
        <ele>78.7</ele>
        <time>2026-02-06T14:14:18.000Z</time>
      </trkpt>
      <trkpt lat="43.4183" lon="6.379">
        <ele>80.7</ele>
        <time>2026-02-06T14:14:41.000Z</time>
      </trkpt>
      <trkpt lat="43.41825" lon="6.37888">
        <ele>82</ele>
        <time>2026-02-06T14:15:05.000Z</time>
      </trkpt>
      <trkpt lat="43.41818" lon="6.37879">
        <ele>84.2</ele>
        <time>2026-02-06T14:15:22.000Z</time>
      </trkpt>
      <trkpt lat="43.41814" lon="6.37867">
        <ele>86.2</ele>
        <time>2026-02-06T14:15:44.000Z</time>
      </trkpt>
      <trkpt lat="43.41813" lon="6.37855">
        <ele>88.4</ele>
        <time>2026-02-06T14:15:58.000Z</time>
      </trkpt>
      <trkpt lat="43.41807" lon="6.37845">
        <ele>90.3</ele>
        <time>2026-02-06T14:16:15.000Z</time>
      </trkpt>
      <trkpt lat="43.41806" lon="6.37832">
        <ele>92.1</ele>
        <time>2026-02-06T14:16:38.000Z</time>
      </trkpt>
      <trkpt lat="43.41803" lon="6.3782">
        <ele>93</ele>
        <time>2026-02-06T14:16:52.000Z</time>
      </trkpt>
      <trkpt lat="43.41804" lon="6.37807">
        <ele>94.5</ele>
        <time>2026-02-06T14:17:07.000Z</time>
      </trkpt>
      <trkpt lat="43.418" lon="6.37796">
        <ele>95.8</ele>
        <time>2026-02-06T14:17:21.000Z</time>
      </trkpt>
      <trkpt lat="43.41798" lon="6.37783">
        <ele>97.2</ele>
        <time>2026-02-06T14:17:36.000Z</time>
      </trkpt>
      <trkpt lat="43.41795" lon="6.37771">
        <ele>98.6</ele>
        <time>2026-02-06T14:17:52.000Z</time>
      </trkpt>
      <trkpt lat="43.41793" lon="6.37759">
        <ele>99.6</ele>
        <time>2026-02-06T14:18:04.000Z</time>
      </trkpt>
      <trkpt lat="43.4179" lon="6.37746">
        <ele>101.4</ele>
        <time>2026-02-06T14:18:22.000Z</time>
      </trkpt>
      <trkpt lat="43.41785" lon="6.37736">
        <ele>103</ele>
        <time>2026-02-06T14:18:38.000Z</time>
      </trkpt>
      <trkpt lat="43.41785" lon="6.37723">
        <ele>105.2</ele>
        <time>2026-02-06T14:18:56.000Z</time>
      </trkpt>
      <trkpt lat="43.4178" lon="6.37713">
        <ele>107</ele>
        <time>2026-02-06T14:19:16.000Z</time>
      </trkpt>
      <trkpt lat="43.41778" lon="6.377">
        <ele>110.1</ele>
        <time>2026-02-06T14:19:56.000Z</time>
      </trkpt>
      <trkpt lat="43.41775" lon="6.37687">
        <ele>111.9</ele>
        <time>2026-02-06T14:20:15.000Z</time>
      </trkpt>
      <trkpt lat="43.41776" lon="6.37674">
        <ele>114.4</ele>
        <time>2026-02-06T14:20:35.000Z</time>
      </trkpt>
      <trkpt lat="43.41777" lon="6.37661">
        <ele>115.6</ele>
        <time>2026-02-06T14:20:49.000Z</time>
      </trkpt>
      <trkpt lat="43.41778" lon="6.37648">
        <ele>117.3</ele>
        <time>2026-02-06T14:21:05.000Z</time>
      </trkpt>
      <trkpt lat="43.41782" lon="6.37643">
        <ele>118.5</ele>
        <time>2026-02-06T14:21:53.000Z</time>
      </trkpt>
      <trkpt lat="43.41779" lon="6.37641">
        <ele>118.5</ele>
        <time>2026-02-06T14:22:14.000Z</time>
      </trkpt>
      <trkpt lat="43.41775" lon="6.37638">
        <ele>119.1</ele>
        <time>2026-02-06T14:22:42.000Z</time>
      </trkpt>
      <trkpt lat="43.41776" lon="6.37637">
        <ele>119.3</ele>
        <time>2026-02-06T14:22:53.000Z</time>
      </trkpt>
      <trkpt lat="43.41775" lon="6.37637">
        <ele>119.2</ele>
        <time>2026-02-06T14:23:08.000Z</time>
      </trkpt>
      <trkpt lat="43.41774" lon="6.37637">
        <ele>119.1</ele>
        <time>2026-02-06T14:23:27.000Z</time>
      </trkpt>
      <trkpt lat="43.41774" lon="6.37637">
        <ele>119</ele>
        <time>2026-02-06T14:23:41.000Z</time>
      </trkpt>
      <trkpt lat="43.41774" lon="6.37634">
        <ele>118.8</ele>
        <time>2026-02-06T14:24:30.000Z</time>
      </trkpt>
      <trkpt lat="43.41773" lon="6.37622">
        <ele>118.9</ele>
        <time>2026-02-06T14:24:55.000Z</time>
      </trkpt>
      <trkpt lat="43.41773" lon="6.37609">
        <ele>119.1</ele>
        <time>2026-02-06T14:25:07.000Z</time>
      </trkpt>
      <trkpt lat="43.41772" lon="6.37597">
        <ele>119.5</ele>
        <time>2026-02-06T14:25:20.000Z</time>
      </trkpt>
      <trkpt lat="43.41769" lon="6.37583">
        <ele>119.6</ele>
        <time>2026-02-06T14:25:31.000Z</time>
      </trkpt>
      <trkpt lat="43.41765" lon="6.37571">
        <ele>119.4</ele>
        <time>2026-02-06T14:25:41.000Z</time>
      </trkpt>
      <trkpt lat="43.41762" lon="6.3756">
        <ele>118.6</ele>
        <time>2026-02-06T14:25:53.000Z</time>
      </trkpt>
      <trkpt lat="43.41759" lon="6.37548">
        <ele>117.4</ele>
        <time>2026-02-06T14:26:04.000Z</time>
      </trkpt>
      <trkpt lat="43.41755" lon="6.37535">
        <ele>116.5</ele>
        <time>2026-02-06T14:26:15.000Z</time>
      </trkpt>
      <trkpt lat="43.41751" lon="6.37524">
        <ele>115.9</ele>
        <time>2026-02-06T14:26:27.000Z</time>
      </trkpt>
      <trkpt lat="43.41747" lon="6.37513">
        <ele>115.4</ele>
        <time>2026-02-06T14:26:38.000Z</time>
      </trkpt>
      <trkpt lat="43.41742" lon="6.37501">
        <ele>115</ele>
        <time>2026-02-06T14:26:50.000Z</time>
      </trkpt>
      <trkpt lat="43.41737" lon="6.3749">
        <ele>114.6</ele>
        <time>2026-02-06T14:27:01.000Z</time>
      </trkpt>
      <trkpt lat="43.41733" lon="6.37478">
        <ele>114.1</ele>
        <time>2026-02-06T14:27:10.000Z</time>
      </trkpt>
      <trkpt lat="43.41729" lon="6.37467">
        <ele>113.8</ele>
        <time>2026-02-06T14:27:20.000Z</time>
      </trkpt>
      <trkpt lat="43.41726" lon="6.37455">
        <ele>113.5</ele>
        <time>2026-02-06T14:27:30.000Z</time>
      </trkpt>
      <trkpt lat="43.41724" lon="6.37443">
        <ele>112.8</ele>
        <time>2026-02-06T14:27:41.000Z</time>
      </trkpt>
      <trkpt lat="43.41721" lon="6.3743">
        <ele>111.9</ele>
        <time>2026-02-06T14:27:52.000Z</time>
      </trkpt>
      <trkpt lat="43.41718" lon="6.37417">
        <ele>111.3</ele>
        <time>2026-02-06T14:28:03.000Z</time>
      </trkpt>
      <trkpt lat="43.41713" lon="6.37406">
        <ele>111</ele>
        <time>2026-02-06T14:28:13.000Z</time>
      </trkpt>
      <trkpt lat="43.4171" lon="6.37393">
        <ele>110.5</ele>
        <time>2026-02-06T14:28:24.000Z</time>
      </trkpt>
      <trkpt lat="43.41706" lon="6.37382">
        <ele>109.7</ele>
        <time>2026-02-06T14:28:34.000Z</time>
      </trkpt>
      <trkpt lat="43.41702" lon="6.37371">
        <ele>109.2</ele>
        <time>2026-02-06T14:28:43.000Z</time>
      </trkpt>
      <trkpt lat="43.41697" lon="6.37361">
        <ele>108.9</ele>
        <time>2026-02-06T14:28:52.000Z</time>
      </trkpt>
      <trkpt lat="43.4169" lon="6.37352">
        <ele>108.8</ele>
        <time>2026-02-06T14:29:01.000Z</time>
      </trkpt>
      <trkpt lat="43.41682" lon="6.37344">
        <ele>108.8</ele>
        <time>2026-02-06T14:29:10.000Z</time>
      </trkpt>
      <trkpt lat="43.41676" lon="6.37334">
        <ele>108.5</ele>
        <time>2026-02-06T14:29:20.000Z</time>
      </trkpt>
      <trkpt lat="43.4167" lon="6.37322">
        <ele>108.2</ele>
        <time>2026-02-06T14:29:30.000Z</time>
      </trkpt>
      <trkpt lat="43.41667" lon="6.3731">
        <ele>107.9</ele>
        <time>2026-02-06T14:29:40.000Z</time>
      </trkpt>
      <trkpt lat="43.41663" lon="6.37299">
        <ele>107.9</ele>
        <time>2026-02-06T14:29:54.000Z</time>
      </trkpt>
      <trkpt lat="43.41659" lon="6.37287">
        <ele>108.7</ele>
        <time>2026-02-06T14:30:07.000Z</time>
      </trkpt>
      <trkpt lat="43.41654" lon="6.37275">
        <ele>110.3</ele>
        <time>2026-02-06T14:30:21.000Z</time>
      </trkpt>
      <trkpt lat="43.41651" lon="6.37263">
        <ele>111.1</ele>
        <time>2026-02-06T14:30:33.000Z</time>
      </trkpt>
      <trkpt lat="43.41646" lon="6.37253">
        <ele>111.6</ele>
        <time>2026-02-06T14:30:43.000Z</time>
      </trkpt>
      <trkpt lat="43.41641" lon="6.37241">
        <ele>112.4</ele>
        <time>2026-02-06T14:30:55.000Z</time>
      </trkpt>
      <trkpt lat="43.41635" lon="6.37232">
        <ele>113.2</ele>
        <time>2026-02-06T14:31:05.000Z</time>
      </trkpt>
      <trkpt lat="43.41628" lon="6.37222">
        <ele>114.4</ele>
        <time>2026-02-06T14:31:15.000Z</time>
      </trkpt>
      <trkpt lat="43.41622" lon="6.37212">
        <ele>114.9</ele>
        <time>2026-02-06T14:31:26.000Z</time>
      </trkpt>
      <trkpt lat="43.41616" lon="6.37201">
        <ele>115.1</ele>
        <time>2026-02-06T14:31:37.000Z</time>
      </trkpt>
      <trkpt lat="43.41612" lon="6.3719">
        <ele>115.3</ele>
        <time>2026-02-06T14:31:48.000Z</time>
      </trkpt>
      <trkpt lat="43.41607" lon="6.37179">
        <ele>115.4</ele>
        <time>2026-02-06T14:32:01.000Z</time>
      </trkpt>
      <trkpt lat="43.416" lon="6.3717">
        <ele>115.8</ele>
        <time>2026-02-06T14:32:12.000Z</time>
      </trkpt>
      <trkpt lat="43.41592" lon="6.37161">
        <ele>116.8</ele>
        <time>2026-02-06T14:32:25.000Z</time>
      </trkpt>
      <trkpt lat="43.41585" lon="6.37152">
        <ele>117.8</ele>
        <time>2026-02-06T14:32:37.000Z</time>
      </trkpt>
      <trkpt lat="43.41579" lon="6.37143">
        <ele>118.3</ele>
        <time>2026-02-06T14:32:47.000Z</time>
      </trkpt>
      <trkpt lat="43.41572" lon="6.37133">
        <ele>118.6</ele>
        <time>2026-02-06T14:32:59.000Z</time>
      </trkpt>
      <trkpt lat="43.41565" lon="6.37125">
        <ele>118.8</ele>
        <time>2026-02-06T14:33:10.000Z</time>
      </trkpt>
      <trkpt lat="43.41558" lon="6.37115">
        <ele>119.1</ele>
        <time>2026-02-06T14:33:22.000Z</time>
      </trkpt>
      <trkpt lat="43.41553" lon="6.37107">
        <ele>120</ele>
        <time>2026-02-06T14:34:17.000Z</time>
      </trkpt>
      <trkpt lat="43.41551" lon="6.37104">
        <ele>120</ele>
        <time>2026-02-06T14:34:51.000Z</time>
      </trkpt>
      <trkpt lat="43.41544" lon="6.37096">
        <ele>120</ele>
        <time>2026-02-06T14:35:05.000Z</time>
      </trkpt>
      <trkpt lat="43.41541" lon="6.37097">
        <ele>120.2</ele>
        <time>2026-02-06T14:35:23.000Z</time>
      </trkpt>
      <trkpt lat="43.41536" lon="6.37089">
        <ele>120.6</ele>
        <time>2026-02-06T14:35:36.000Z</time>
      </trkpt>
      <trkpt lat="43.4153" lon="6.37078">
        <ele>121.1</ele>
        <time>2026-02-06T14:35:46.000Z</time>
      </trkpt>
      <trkpt lat="43.41523" lon="6.3707">
        <ele>121.8</ele>
        <time>2026-02-06T14:35:56.000Z</time>
      </trkpt>
      <trkpt lat="43.41516" lon="6.37061">
        <ele>122.3</ele>
        <time>2026-02-06T14:36:06.000Z</time>
      </trkpt>
      <trkpt lat="43.41508" lon="6.37053">
        <ele>123.3</ele>
        <time>2026-02-06T14:36:20.000Z</time>
      </trkpt>
      <trkpt lat="43.41502" lon="6.37043">
        <ele>123.9</ele>
        <time>2026-02-06T14:36:30.000Z</time>
      </trkpt>
      <trkpt lat="43.41494" lon="6.37037">
        <ele>124.9</ele>
        <time>2026-02-06T14:36:41.000Z</time>
      </trkpt>
      <trkpt lat="43.41485" lon="6.37035">
        <ele>125.4</ele>
        <time>2026-02-06T14:36:52.000Z</time>
      </trkpt>
      <trkpt lat="43.41476" lon="6.3703">
        <ele>126.6</ele>
        <time>2026-02-06T14:37:04.000Z</time>
      </trkpt>
      <trkpt lat="43.41467" lon="6.37026">
        <ele>127.6</ele>
        <time>2026-02-06T14:37:16.000Z</time>
      </trkpt>
      <trkpt lat="43.41458" lon="6.37026">
        <ele>128.7</ele>
        <time>2026-02-06T14:37:36.000Z</time>
      </trkpt>
      <trkpt lat="43.41455" lon="6.37038">
        <ele>129.1</ele>
        <time>2026-02-06T14:37:51.000Z</time>
      </trkpt>
      <trkpt lat="43.41455" lon="6.37051">
        <ele>128.9</ele>
        <time>2026-02-06T14:38:03.000Z</time>
      </trkpt>
      <trkpt lat="43.41458" lon="6.37063">
        <ele>129.1</ele>
        <time>2026-02-06T14:38:14.000Z</time>
      </trkpt>
      <trkpt lat="43.41461" lon="6.37076">
        <ele>129.7</ele>
        <time>2026-02-06T14:38:27.000Z</time>
      </trkpt>
      <trkpt lat="43.41462" lon="6.37088">
        <ele>131.1</ele>
        <time>2026-02-06T14:38:40.000Z</time>
      </trkpt>
      <trkpt lat="43.4146" lon="6.37102">
        <ele>132.5</ele>
        <time>2026-02-06T14:38:54.000Z</time>
      </trkpt>
      <trkpt lat="43.41457" lon="6.37114">
        <ele>133.8</ele>
        <time>2026-02-06T14:39:05.000Z</time>
      </trkpt>
      <trkpt lat="43.41455" lon="6.37127">
        <ele>134.6</ele>
        <time>2026-02-06T14:39:16.000Z</time>
      </trkpt>
      <trkpt lat="43.41448" lon="6.37136">
        <ele>135</ele>
        <time>2026-02-06T14:39:24.000Z</time>
      </trkpt>
      <trkpt lat="43.41444" lon="6.37148">
        <ele>135.4</ele>
        <time>2026-02-06T14:39:35.000Z</time>
      </trkpt>
      <trkpt lat="43.41439" lon="6.37158">
        <ele>135.7</ele>
        <time>2026-02-06T14:39:44.000Z</time>
      </trkpt>
      <trkpt lat="43.41431" lon="6.37164">
        <ele>135.9</ele>
        <time>2026-02-06T14:39:52.000Z</time>
      </trkpt>
      <trkpt lat="43.41423" lon="6.37173">
        <ele>136.2</ele>
        <time>2026-02-06T14:40:01.000Z</time>
      </trkpt>
      <trkpt lat="43.41417" lon="6.37182">
        <ele>136.3</ele>
        <time>2026-02-06T14:40:10.000Z</time>
      </trkpt>
      <trkpt lat="43.4141" lon="6.37192">
        <ele>136.2</ele>
        <time>2026-02-06T14:40:18.000Z</time>
      </trkpt>
      <trkpt lat="43.41403" lon="6.372">
        <ele>135.9</ele>
        <time>2026-02-06T14:40:31.000Z</time>
      </trkpt>
      <trkpt lat="43.41395" lon="6.37206">
        <ele>135.9</ele>
        <time>2026-02-06T14:40:38.000Z</time>
      </trkpt>
      <trkpt lat="43.4139" lon="6.37217">
        <ele>135.9</ele>
        <time>2026-02-06T14:40:46.000Z</time>
      </trkpt>
      <trkpt lat="43.41383" lon="6.37227">
        <ele>135.9</ele>
        <time>2026-02-06T14:40:54.000Z</time>
      </trkpt>
      <trkpt lat="43.41377" lon="6.37238">
        <ele>135.9</ele>
        <time>2026-02-06T14:41:03.000Z</time>
      </trkpt>
      <trkpt lat="43.4137" lon="6.37247">
        <ele>136</ele>
        <time>2026-02-06T14:41:13.000Z</time>
      </trkpt>
      <trkpt lat="43.41365" lon="6.37258">
        <ele>136.1</ele>
        <time>2026-02-06T14:41:24.000Z</time>
      </trkpt>
      <trkpt lat="43.41359" lon="6.37269">
        <ele>136.4</ele>
        <time>2026-02-06T14:41:33.000Z</time>
      </trkpt>
      <trkpt lat="43.41356" lon="6.37281">
        <ele>136.9</ele>
        <time>2026-02-06T14:41:44.000Z</time>
      </trkpt>
      <trkpt lat="43.41352" lon="6.37293">
        <ele>137.6</ele>
        <time>2026-02-06T14:41:53.000Z</time>
      </trkpt>
      <trkpt lat="43.41349" lon="6.37305">
        <ele>138.4</ele>
        <time>2026-02-06T14:42:03.000Z</time>
      </trkpt>
      <trkpt lat="43.41346" lon="6.37316">
        <ele>139</ele>
        <time>2026-02-06T14:42:12.000Z</time>
      </trkpt>
      <trkpt lat="43.41342" lon="6.37328">
        <ele>139.3</ele>
        <time>2026-02-06T14:42:22.000Z</time>
      </trkpt>
      <trkpt lat="43.41338" lon="6.3734">
        <ele>139.5</ele>
        <time>2026-02-06T14:42:33.000Z</time>
      </trkpt>
      <trkpt lat="43.41333" lon="6.37352">
        <ele>140.2</ele>
        <time>2026-02-06T14:42:43.000Z</time>
      </trkpt>
      <trkpt lat="43.41329" lon="6.37364">
        <ele>140.7</ele>
        <time>2026-02-06T14:42:53.000Z</time>
      </trkpt>
      <trkpt lat="43.41323" lon="6.37374">
        <ele>141.1</ele>
        <time>2026-02-06T14:43:03.000Z</time>
      </trkpt>
      <trkpt lat="43.41317" lon="6.37384">
        <ele>140.8</ele>
        <time>2026-02-06T14:43:13.000Z</time>
      </trkpt>
      <trkpt lat="43.41311" lon="6.37394">
        <ele>139.4</ele>
        <time>2026-02-06T14:43:25.000Z</time>
      </trkpt>
      <trkpt lat="43.41305" lon="6.37404">
        <ele>138.6</ele>
        <time>2026-02-06T14:43:33.000Z</time>
      </trkpt>
      <trkpt lat="43.413" lon="6.37416">
        <ele>138.1</ele>
        <time>2026-02-06T14:43:42.000Z</time>
      </trkpt>
      <trkpt lat="43.41299" lon="6.37429">
        <ele>137.9</ele>
        <time>2026-02-06T14:43:51.000Z</time>
      </trkpt>
      <trkpt lat="43.41297" lon="6.37442">
        <ele>137.6</ele>
        <time>2026-02-06T14:44:00.000Z</time>
      </trkpt>
      <trkpt lat="43.41295" lon="6.37455">
        <ele>137.5</ele>
        <time>2026-02-06T14:44:11.000Z</time>
      </trkpt>
      <trkpt lat="43.41293" lon="6.37468">
        <ele>137.6</ele>
        <time>2026-02-06T14:44:20.000Z</time>
      </trkpt>
      <trkpt lat="43.41291" lon="6.3748">
        <ele>138.1</ele>
        <time>2026-02-06T14:44:31.000Z</time>
      </trkpt>
      <trkpt lat="43.41289" lon="6.37492">
        <ele>139</ele>
        <time>2026-02-06T14:44:42.000Z</time>
      </trkpt>
      <trkpt lat="43.41284" lon="6.37503">
        <ele>140.2</ele>
        <time>2026-02-06T14:44:53.000Z</time>
      </trkpt>
      <trkpt lat="43.41279" lon="6.37514">
        <ele>141.6</ele>
        <time>2026-02-06T14:45:05.000Z</time>
      </trkpt>
      <trkpt lat="43.41273" lon="6.37524">
        <ele>143.2</ele>
        <time>2026-02-06T14:45:18.000Z</time>
      </trkpt>
      <trkpt lat="43.41267" lon="6.37535">
        <ele>144</ele>
        <time>2026-02-06T14:45:29.000Z</time>
      </trkpt>
      <trkpt lat="43.41264" lon="6.37539">
        <ele>145.2</ele>
        <time>2026-02-06T14:45:56.000Z</time>
      </trkpt>
      <trkpt lat="43.41263" lon="6.37546">
        <ele>145.4</ele>
        <time>2026-02-06T14:48:28.000Z</time>
      </trkpt>
      <trkpt lat="43.4126" lon="6.37558">
        <ele>145.5</ele>
        <time>2026-02-06T14:48:43.000Z</time>
      </trkpt>
      <trkpt lat="43.41254" lon="6.37569">
        <ele>145.8</ele>
        <time>2026-02-06T14:48:56.000Z</time>
      </trkpt>
      <trkpt lat="43.41248" lon="6.37579">
        <ele>145.9</ele>
        <time>2026-02-06T14:49:06.000Z</time>
      </trkpt>
      <trkpt lat="43.41241" lon="6.37588">
        <ele>145.8</ele>
        <time>2026-02-06T14:49:19.000Z</time>
      </trkpt>
      <trkpt lat="43.41236" lon="6.37599">
        <ele>145.2</ele>
        <time>2026-02-06T14:49:30.000Z</time>
      </trkpt>
      <trkpt lat="43.41229" lon="6.37608">
        <ele>144</ele>
        <time>2026-02-06T14:49:41.000Z</time>
      </trkpt>
      <trkpt lat="43.41226" lon="6.3762">
        <ele>142</ele>
        <time>2026-02-06T14:50:00.000Z</time>
      </trkpt>
      <trkpt lat="43.41216" lon="6.3762">
        <ele>139.6</ele>
        <time>2026-02-06T14:50:21.000Z</time>
      </trkpt>
      <trkpt lat="43.41207" lon="6.37619">
        <ele>138.7</ele>
        <time>2026-02-06T14:50:33.000Z</time>
      </trkpt>
      <trkpt lat="43.41197" lon="6.37617">
        <ele>137.8</ele>
        <time>2026-02-06T14:50:45.000Z</time>
      </trkpt>
      <trkpt lat="43.41188" lon="6.37617">
        <ele>136.6</ele>
        <time>2026-02-06T14:50:57.000Z</time>
      </trkpt>
      <trkpt lat="43.41183" lon="6.37629">
        <ele>135</ele>
        <time>2026-02-06T14:51:10.000Z</time>
      </trkpt>
      <trkpt lat="43.41187" lon="6.37642">
        <ele>134.2</ele>
        <time>2026-02-06T14:51:20.000Z</time>
      </trkpt>
      <trkpt lat="43.41192" lon="6.37654">
        <ele>133.6</ele>
        <time>2026-02-06T14:51:29.000Z</time>
      </trkpt>
      <trkpt lat="43.41199" lon="6.37664">
        <ele>133.3</ele>
        <time>2026-02-06T14:51:38.000Z</time>
      </trkpt>
      <trkpt lat="43.41204" lon="6.37677">
        <ele>132.8</ele>
        <time>2026-02-06T14:51:48.000Z</time>
      </trkpt>
      <trkpt lat="43.4121" lon="6.37687">
        <ele>132.3</ele>
        <time>2026-02-06T14:51:56.000Z</time>
      </trkpt>
      <trkpt lat="43.4121" lon="6.37699">
        <ele>131.5</ele>
        <time>2026-02-06T14:52:21.000Z</time>
      </trkpt>
      <trkpt lat="43.41207" lon="6.37713">
        <ele>129.8</ele>
        <time>2026-02-06T14:52:34.000Z</time>
      </trkpt>
      <trkpt lat="43.41208" lon="6.37725">
        <ele>128.8</ele>
        <time>2026-02-06T14:52:43.000Z</time>
      </trkpt>
      <trkpt lat="43.41209" lon="6.37738">
        <ele>128.8</ele>
        <time>2026-02-06T14:52:52.000Z</time>
      </trkpt>
      <trkpt lat="43.41211" lon="6.3775">
        <ele>128.3</ele>
        <time>2026-02-06T14:53:25.000Z</time>
      </trkpt>
      <trkpt lat="43.41211" lon="6.37763">
        <ele>128.1</ele>
        <time>2026-02-06T14:53:41.000Z</time>
      </trkpt>
      <trkpt lat="43.41215" lon="6.37775">
        <ele>128.1</ele>
        <time>2026-02-06T14:53:49.000Z</time>
      </trkpt>
      <trkpt lat="43.41213" lon="6.37788">
        <ele>128.2</ele>
        <time>2026-02-06T14:53:59.000Z</time>
      </trkpt>
      <trkpt lat="43.41213" lon="6.37802">
        <ele>128.3</ele>
        <time>2026-02-06T14:54:07.000Z</time>
      </trkpt>
      <trkpt lat="43.41208" lon="6.37812">
        <ele>128.3</ele>
        <time>2026-02-06T14:54:18.000Z</time>
      </trkpt>
      <trkpt lat="43.41205" lon="6.37825">
        <ele>128.2</ele>
        <time>2026-02-06T14:54:28.000Z</time>
      </trkpt>
      <trkpt lat="43.41197" lon="6.37835">
        <ele>128.2</ele>
        <time>2026-02-06T14:54:36.000Z</time>
      </trkpt>
      <trkpt lat="43.41194" lon="6.37847">
        <ele>128.1</ele>
        <time>2026-02-06T14:54:45.000Z</time>
      </trkpt>
      <trkpt lat="43.41191" lon="6.37858">
        <ele>127.8</ele>
        <time>2026-02-06T14:54:56.000Z</time>
      </trkpt>
      <trkpt lat="43.41188" lon="6.37871">
        <ele>127.4</ele>
        <time>2026-02-06T14:55:06.000Z</time>
      </trkpt>
      <trkpt lat="43.41185" lon="6.37883">
        <ele>126.5</ele>
        <time>2026-02-06T14:55:16.000Z</time>
      </trkpt>
      <trkpt lat="43.41181" lon="6.37894">
        <ele>125.5</ele>
        <time>2026-02-06T14:55:25.000Z</time>
      </trkpt>
      <trkpt lat="43.41177" lon="6.37906">
        <ele>124.8</ele>
        <time>2026-02-06T14:55:34.000Z</time>
      </trkpt>
      <trkpt lat="43.41177" lon="6.37919">
        <ele>124.3</ele>
        <time>2026-02-06T14:55:42.000Z</time>
      </trkpt>
      <trkpt lat="43.41179" lon="6.37932">
        <ele>124</ele>
        <time>2026-02-06T14:55:51.000Z</time>
      </trkpt>
      <trkpt lat="43.41179" lon="6.37945">
        <ele>123.8</ele>
        <time>2026-02-06T14:56:03.000Z</time>
      </trkpt>
      <trkpt lat="43.41175" lon="6.37956">
        <ele>123.8</ele>
        <time>2026-02-06T14:56:14.000Z</time>
      </trkpt>
      <trkpt lat="43.41173" lon="6.37969">
        <ele>123.8</ele>
        <time>2026-02-06T14:56:24.000Z</time>
      </trkpt>
      <trkpt lat="43.41171" lon="6.37982">
        <ele>124</ele>
        <time>2026-02-06T14:56:34.000Z</time>
      </trkpt>
      <trkpt lat="43.41167" lon="6.37994">
        <ele>124</ele>
        <time>2026-02-06T14:56:44.000Z</time>
      </trkpt>
      <trkpt lat="43.41163" lon="6.38006">
        <ele>124.3</ele>
        <time>2026-02-06T14:56:54.000Z</time>
      </trkpt>
      <trkpt lat="43.41158" lon="6.38018">
        <ele>124.9</ele>
        <time>2026-02-06T14:57:07.000Z</time>
      </trkpt>
      <trkpt lat="43.4115" lon="6.38025">
        <ele>125.3</ele>
        <time>2026-02-06T14:57:20.000Z</time>
      </trkpt>
      <trkpt lat="43.41143" lon="6.38034">
        <ele>125.6</ele>
        <time>2026-02-06T14:57:30.000Z</time>
      </trkpt>
      <trkpt lat="43.41134" lon="6.38039">
        <ele>126.1</ele>
        <time>2026-02-06T14:57:40.000Z</time>
      </trkpt>
      <trkpt lat="43.41128" lon="6.38049">
        <ele>126.7</ele>
        <time>2026-02-06T14:57:51.000Z</time>
      </trkpt>
      <trkpt lat="43.41119" lon="6.38053">
        <ele>127.1</ele>
        <time>2026-02-06T14:58:04.000Z</time>
      </trkpt>
      <trkpt lat="43.41111" lon="6.38059">
        <ele>127.4</ele>
        <time>2026-02-06T14:58:14.000Z</time>
      </trkpt>
      <trkpt lat="43.41103" lon="6.38065">
        <ele>127.8</ele>
        <time>2026-02-06T14:58:23.000Z</time>
      </trkpt>
      <trkpt lat="43.41095" lon="6.3807">
        <ele>128.4</ele>
        <time>2026-02-06T14:58:33.000Z</time>
      </trkpt>
      <trkpt lat="43.41086" lon="6.38075">
        <ele>129.3</ele>
        <time>2026-02-06T14:58:44.000Z</time>
      </trkpt>
      <trkpt lat="43.41079" lon="6.38085">
        <ele>130.1</ele>
        <time>2026-02-06T14:58:55.000Z</time>
      </trkpt>
      <trkpt lat="43.4107" lon="6.38088">
        <ele>130.6</ele>
        <time>2026-02-06T14:59:07.000Z</time>
      </trkpt>
      <trkpt lat="43.41061" lon="6.38088">
        <ele>131.1</ele>
        <time>2026-02-06T14:59:16.000Z</time>
      </trkpt>
      <trkpt lat="43.41052" lon="6.38092">
        <ele>131.7</ele>
        <time>2026-02-06T14:59:29.000Z</time>
      </trkpt>
      <trkpt lat="43.41042" lon="6.38095">
        <ele>132.2</ele>
        <time>2026-02-06T14:59:41.000Z</time>
      </trkpt>
      <trkpt lat="43.41034" lon="6.38101">
        <ele>132.7</ele>
        <time>2026-02-06T14:59:51.000Z</time>
      </trkpt>
      <trkpt lat="43.41024" lon="6.38103">
        <ele>133.3</ele>
        <time>2026-02-06T15:00:03.000Z</time>
      </trkpt>
      <trkpt lat="43.41016" lon="6.38109">
        <ele>134.1</ele>
        <time>2026-02-06T15:00:14.000Z</time>
      </trkpt>
      <trkpt lat="43.41006" lon="6.38113">
        <ele>134.9</ele>
        <time>2026-02-06T15:00:26.000Z</time>
      </trkpt>
      <trkpt lat="43.40997" lon="6.38115">
        <ele>135.4</ele>
        <time>2026-02-06T15:00:35.000Z</time>
      </trkpt>
      <trkpt lat="43.40987" lon="6.38116">
        <ele>136.2</ele>
        <time>2026-02-06T15:00:47.000Z</time>
      </trkpt>
      <trkpt lat="43.40977" lon="6.38117">
        <ele>137.2</ele>
        <time>2026-02-06T15:00:57.000Z</time>
      </trkpt>
      <trkpt lat="43.40968" lon="6.38118">
        <ele>138.2</ele>
        <time>2026-02-06T15:01:07.000Z</time>
      </trkpt>
      <trkpt lat="43.40958" lon="6.38117">
        <ele>139</ele>
        <time>2026-02-06T15:01:18.000Z</time>
      </trkpt>
      <trkpt lat="43.40949" lon="6.38112">
        <ele>139.7</ele>
        <time>2026-02-06T15:01:30.000Z</time>
      </trkpt>
      <trkpt lat="43.4094" lon="6.38113">
        <ele>140.2</ele>
        <time>2026-02-06T15:01:40.000Z</time>
      </trkpt>
      <trkpt lat="43.40937" lon="6.38125">
        <ele>141.3</ele>
        <time>2026-02-06T15:01:53.000Z</time>
      </trkpt>
      <trkpt lat="43.40928" lon="6.38126">
        <ele>142.6</ele>
        <time>2026-02-06T15:02:17.000Z</time>
      </trkpt>
      <trkpt lat="43.4092" lon="6.38132">
        <ele>142.9</ele>
        <time>2026-02-06T15:02:29.000Z</time>
      </trkpt>
      <trkpt lat="43.40912" lon="6.3814">
        <ele>143.8</ele>
        <time>2026-02-06T15:02:47.000Z</time>
      </trkpt>
      <trkpt lat="43.40909" lon="6.38147">
        <ele>144.3</ele>
        <time>2026-02-06T15:03:05.000Z</time>
      </trkpt>
      <trkpt lat="43.40909" lon="6.38148">
        <ele>144.4</ele>
        <time>2026-02-06T15:03:12.000Z</time>
      </trkpt>
      <trkpt lat="43.40908" lon="6.38147">
        <ele>144.4</ele>
        <time>2026-02-06T15:03:23.000Z</time>
      </trkpt>
      <trkpt lat="43.40908" lon="6.38147">
        <ele>144.4</ele>
        <time>2026-02-06T15:03:28.000Z</time>
      </trkpt>
      <trkpt lat="43.40907" lon="6.38148">
        <ele>144.4</ele>
        <time>2026-02-06T15:03:42.000Z</time>
      </trkpt>
      <trkpt lat="43.40907" lon="6.38149">
        <ele>144.4</ele>
        <time>2026-02-06T15:03:51.000Z</time>
      </trkpt>
      <trkpt lat="43.40908" lon="6.38149">
        <ele>144.2</ele>
        <time>2026-02-06T15:04:14.000Z</time>
      </trkpt>
      <trkpt lat="43.40908" lon="6.38148">
        <ele>144.1</ele>
        <time>2026-02-06T15:04:21.000Z</time>
      </trkpt>
      <trkpt lat="43.40911" lon="6.38143">
        <ele>144.5</ele>
        <time>2026-02-06T15:04:42.000Z</time>
      </trkpt>
      <trkpt lat="43.40908" lon="6.38133">
        <ele>144.6</ele>
        <time>2026-02-06T15:04:47.000Z</time>
      </trkpt>
      <trkpt lat="43.40913" lon="6.38142">
        <ele>144.8</ele>
        <time>2026-02-06T15:05:03.000Z</time>
      </trkpt>
      <trkpt lat="43.40912" lon="6.38143">
        <ele>144.8</ele>
        <time>2026-02-06T15:05:11.000Z</time>
      </trkpt>
      <trkpt lat="43.40914" lon="6.38152">
        <ele>144.5</ele>
        <time>2026-02-06T15:05:31.000Z</time>
      </trkpt>
      <trkpt lat="43.40909" lon="6.38148">
        <ele>144.5</ele>
        <time>2026-02-06T15:05:43.000Z</time>
      </trkpt>
      <trkpt lat="43.4091" lon="6.38146">
        <ele>144.8</ele>
        <time>2026-02-06T15:06:38.099Z</time>
      </trkpt>
      <trkpt lat="43.4091" lon="6.38146">
        <ele>144.8</ele>
        <time>2026-02-06T15:06:38.099Z</time>
      </trkpt>
    </trkseg>
  </trk>
</gpx>